sensor_id;sensor_type;location;lat;lon;timestamp;P1;durP1;ratioP1;P2;durP2;ratioP2
62633;SDS011;48704;50.534;6.442;2023-02-21T00:01:15;29.35;;;11.23;;
62633;SDS011;48704;50.534;6.442;2023-02-21T00:06:43;30.40;;;11.55;;
62633;SDS011;48704;50.534;6.442;2023-02-21T00:09:27;25.48;;;10.95;;
62633;SDS011;48704;50.534;6.442;2023-02-21T00:14:55;29.27;;;11.02;;
62633;SDS011;48704;50.534;6.442;2023-02-21T00:20:23;26.88;;;9.85;;
62633;SDS011;48704;50.534;6.442;2023-02-21T00:23:08;26.05;;;11.93;;
62633;SDS011;48704;50.534;6.442;2023-02-21T00:25:52;25.42;;;11.10;;
62633;SDS011;48704;50.534;6.442;2023-02-21T00:31:20;26.98;;;11.30;;
62633;SDS011;48704;50.534;6.442;2023-02-21T00:36:48;25.73;;;9.90;;
62633;SDS011;48704;50.534;6.442;2023-02-21T00:42:16;26.48;;;11.43;;
62633;SDS011;48704;50.534;6.442;2023-02-21T00:45:00;29.00;;;11.25;;
62633;SDS011;48704;50.534;6.442;2023-02-21T00:50:28;29.95;;;11.57;;
62633;SDS011;48704;50.534;6.442;2023-02-21T00:55:56;26.20;;;10.18;;
62633;SDS011;48704;50.534;6.442;2023-02-21T00:58:40;26.88;;;11.10;;
62633;SDS011;48704;50.534;6.442;2023-02-21T01:01:24;33.15;;;11.73;;
62633;SDS011;48704;50.534;6.442;2023-02-21T01:04:08;25.92;;;11.50;;
62633;SDS011;48704;50.534;6.442;2023-02-21T01:09:36;28.30;;;10.02;;
62633;SDS011;48704;50.534;6.442;2023-02-21T01:15:04;30.23;;;11.57;;
62633;SDS011;48704;50.534;6.442;2023-02-21T01:17:48;30.77;;;11.52;;
62633;SDS011;48704;50.534;6.442;2023-02-21T01:20:32;25.30;;;10.65;;
62633;SDS011;48704;50.534;6.442;2023-02-21T01:23:16;30.50;;;11.38;;
62633;SDS011;48704;50.534;6.442;2023-02-21T01:28:46;23.55;;;9.77;;
62633;SDS011;48704;50.534;6.442;2023-02-21T01:31:30;27.45;;;11.88;;
62633;SDS011;48704;50.534;6.442;2023-02-21T01:36:58;27.50;;;10.90;;
62633;SDS011;48704;50.534;6.442;2023-02-21T01:42:26;26.08;;;10.50;;
62633;SDS011;48704;50.534;6.442;2023-02-21T01:48:04;30.17;;;11.60;;
62633;SDS011;48704;50.534;6.442;2023-02-21T01:50:49;23.73;;;9.20;;
62633;SDS011;48704;50.534;6.442;2023-02-21T01:53:35;29.38;;;10.77;;
62633;SDS011;48704;50.534;6.442;2023-02-21T01:56:20;24.60;;;10.40;;
62633;SDS011;48704;50.534;6.442;2023-02-21T02:04:47;26.73;;;11.63;;
62633;SDS011;48704;50.534;6.442;2023-02-21T02:07:32;28.30;;;10.70;;
62633;SDS011;48704;50.534;6.442;2023-02-21T02:10:17;23.33;;;10.13;;
62633;SDS011;48704;50.534;6.442;2023-02-21T02:13:12;24.50;;;10.88;;
62633;SDS011;48704;50.534;6.442;2023-02-21T02:21:50;20.85;;;9.43;;
62633;SDS011;48704;50.534;6.442;2023-02-21T02:33:14;23.13;;;9.30;;
62633;SDS011;48704;50.534;6.442;2023-02-21T02:38:32;26.80;;;10.45;;
62633;SDS011;48704;50.534;6.442;2023-02-21T02:41:05;25.13;;;10.38;;
62633;SDS011;48704;50.534;6.442;2023-02-21T02:43:53;24.10;;;10.18;;
62633;SDS011;48704;50.534;6.442;2023-02-21T02:46:26;23.90;;;8.63;;
62633;SDS011;48704;50.534;6.442;2023-02-21T02:48:57;27.05;;;10.07;;
62633;SDS011;48704;50.534;6.442;2023-02-21T02:51:26;27.97;;;11.23;;
62633;SDS011;48704;50.534;6.442;2023-02-21T02:53:52;24.75;;;9.82;;
62633;SDS011;48704;50.534;6.442;2023-02-21T02:56:17;22.10;;;8.52;;
62633;SDS011;48704;50.534;6.442;2023-02-21T02:58:44;21.98;;;10.13;;
62633;SDS011;48704;50.534;6.442;2023-02-21T03:01:19;22.90;;;9.68;;
62633;SDS011;48704;50.534;6.442;2023-02-21T03:03:59;24.70;;;9.10;;
62633;SDS011;48704;50.534;6.442;2023-02-21T03:09:34;23.30;;;9.98;;
62633;SDS011;48704;50.534;6.442;2023-02-21T03:12:19;24.50;;;9.98;;
62633;SDS011;48704;50.534;6.442;2023-02-21T03:14:49;23.17;;;9.65;;
62633;SDS011;48704;50.534;6.442;2023-02-21T03:17:21;25.80;;;11.02;;
62633;SDS011;48704;50.534;6.442;2023-02-21T03:19:50;23.80;;;10.45;;
62633;SDS011;48704;50.534;6.442;2023-02-21T03:22:19;23.60;;;10.07;;
62633;SDS011;48704;50.534;6.442;2023-02-21T03:24:48;26.95;;;10.88;;
62633;SDS011;48704;50.534;6.442;2023-02-21T03:27:15;25.13;;;10.55;;
62633;SDS011;48704;50.534;6.442;2023-02-21T03:29:41;22.10;;;9.80;;
62633;SDS011;48704;50.534;6.442;2023-02-21T03:32:08;26.83;;;11.43;;
62633;SDS011;48704;50.534;6.442;2023-02-21T03:34:39;22.98;;;9.57;;
62633;SDS011;48704;50.534;6.442;2023-02-21T03:37:07;22.75;;;9.43;;
62633;SDS011;48704;50.534;6.442;2023-02-21T03:39:34;24.85;;;10.18;;
62633;SDS011;48704;50.534;6.442;2023-02-21T03:41:59;24.27;;;10.27;;
62633;SDS011;48704;50.534;6.442;2023-02-21T03:44:25;25.27;;;9.32;;
62633;SDS011;48704;50.534;6.442;2023-02-21T03:46:50;26.17;;;10.57;;
62633;SDS011;48704;50.534;6.442;2023-02-21T03:49:15;24.15;;;10.50;;
62633;SDS011;48704;50.534;6.442;2023-02-21T03:51:41;22.85;;;10.05;;
62633;SDS011;48704;50.534;6.442;2023-02-21T03:54:06;26.55;;;10.30;;
62633;SDS011;48704;50.534;6.442;2023-02-21T03:56:31;23.98;;;10.85;;
62633;SDS011;48704;50.534;6.442;2023-02-21T03:58:56;22.95;;;9.52;;
62633;SDS011;48704;50.534;6.442;2023-02-21T04:01:21;23.75;;;10.45;;
62633;SDS011;48704;50.534;6.442;2023-02-21T04:03:47;21.02;;;9.68;;
62633;SDS011;48704;50.534;6.442;2023-02-21T04:06:12;23.75;;;10.50;;
62633;SDS011;48704;50.534;6.442;2023-02-21T04:08:37;18.52;;;8.85;;
62633;SDS011;48704;50.534;6.442;2023-02-21T04:11:03;23.10;;;9.88;;
62633;SDS011;48704;50.534;6.442;2023-02-21T04:13:28;22.13;;;9.48;;
62633;SDS011;48704;50.534;6.442;2023-02-21T04:15:53;23.20;;;9.82;;
62633;SDS011;48704;50.534;6.442;2023-02-21T04:18:18;21.23;;;9.55;;
62633;SDS011;48704;50.534;6.442;2023-02-21T04:20:44;21.65;;;9.82;;
62633;SDS011;48704;50.534;6.442;2023-02-21T04:23:11;20.05;;;9.40;;
62633;SDS011;48704;50.534;6.442;2023-02-21T04:25:37;20.88;;;9.35;;
62633;SDS011;48704;50.534;6.442;2023-02-21T04:28:02;21.02;;;9.40;;
62633;SDS011;48704;50.534;6.442;2023-02-21T04:30:28;20.25;;;8.98;;
62633;SDS011;48704;50.534;6.442;2023-02-21T04:32:53;22.13;;;9.88;;
62633;SDS011;48704;50.534;6.442;2023-02-21T04:35:18;19.05;;;8.60;;
62633;SDS011;48704;50.534;6.442;2023-02-21T04:37:44;22.02;;;8.68;;
62633;SDS011;48704;50.534;6.442;2023-02-21T04:40:10;19.50;;;8.45;;
62633;SDS011;48704;50.534;6.442;2023-02-21T04:42:35;20.98;;;9.00;;
62633;SDS011;48704;50.534;6.442;2023-02-21T04:45:01;21.20;;;9.75;;
62633;SDS011;48704;50.534;6.442;2023-02-21T04:47:27;17.95;;;8.02;;
62633;SDS011;48704;50.534;6.442;2023-02-21T04:49:52;19.88;;;9.15;;
62633;SDS011;48704;50.534;6.442;2023-02-21T04:52:18;23.00;;;9.77;;
62633;SDS011;48704;50.534;6.442;2023-02-21T04:54:46;20.27;;;8.98;;
62633;SDS011;48704;50.534;6.442;2023-02-21T04:57:12;17.35;;;7.88;;
62633;SDS011;48704;50.534;6.442;2023-02-21T04:59:38;21.63;;;8.43;;
62633;SDS011;48704;50.534;6.442;2023-02-21T05:02:03;18.90;;;8.35;;
62633;SDS011;48704;50.534;6.442;2023-02-21T05:04:30;20.35;;;8.68;;
62633;SDS011;48704;50.534;6.442;2023-02-21T05:06:57;21.33;;;8.65;;
62633;SDS011;48704;50.534;6.442;2023-02-21T05:09:23;18.15;;;8.18;;
62633;SDS011;48704;50.534;6.442;2023-02-21T05:11:48;20.50;;;8.02;;
62633;SDS011;48704;50.534;6.442;2023-02-21T05:14:14;20.23;;;8.75;;
62633;SDS011;48704;50.534;6.442;2023-02-21T05:16:39;16.42;;;7.40;;
62633;SDS011;48704;50.534;6.442;2023-02-21T05:19:04;19.00;;;8.75;;
62633;SDS011;48704;50.534;6.442;2023-02-21T05:21:32;20.02;;;8.95;;
62633;SDS011;48704;50.534;6.442;2023-02-21T05:23:59;20.40;;;9.10;;
62633;SDS011;48704;50.534;6.442;2023-02-21T05:26:26;22.48;;;9.80;;
62633;SDS011;48704;50.534;6.442;2023-02-21T05:28:53;19.35;;;8.63;;
62633;SDS011;48704;50.534;6.442;2023-02-21T05:31:19;19.83;;;8.85;;
62633;SDS011;48704;50.534;6.442;2023-02-21T05:33:45;18.45;;;8.70;;
62633;SDS011;48704;50.534;6.442;2023-02-21T05:36:10;18.52;;;8.38;;
62633;SDS011;48704;50.534;6.442;2023-02-21T05:38:48;21.65;;;9.90;;
62633;SDS011;48704;50.534;6.442;2023-02-21T05:41:16;20.10;;;8.93;;
62633;SDS011;48704;50.534;6.442;2023-02-21T05:43:42;21.48;;;9.45;;
62633;SDS011;48704;50.534;6.442;2023-02-21T05:46:16;22.40;;;9.40;;
62633;SDS011;48704;50.534;6.442;2023-02-21T05:48:43;21.15;;;8.57;;
62633;SDS011;48704;50.534;6.442;2023-02-21T05:51:08;19.73;;;8.18;;
62633;SDS011;48704;50.534;6.442;2023-02-21T05:53:33;25.77;;;9.57;;
62633;SDS011;48704;50.534;6.442;2023-02-21T05:55:58;20.77;;;9.65;;
62633;SDS011;48704;50.534;6.442;2023-02-21T05:58:24;25.55;;;9.93;;
62633;SDS011;48704;50.534;6.442;2023-02-21T06:00:50;20.75;;;8.63;;
62633;SDS011;48704;50.534;6.442;2023-02-21T06:03:15;27.65;;;10.90;;
62633;SDS011;48704;50.534;6.442;2023-02-21T06:05:40;23.35;;;10.50;;
62633;SDS011;48704;50.534;6.442;2023-02-21T06:08:06;24.45;;;10.15;;
62633;SDS011;48704;50.534;6.442;2023-02-21T06:10:31;26.00;;;10.27;;
62633;SDS011;48704;50.534;6.442;2023-02-21T06:12:56;24.13;;;10.48;;
62633;SDS011;48704;50.534;6.442;2023-02-21T06:15:21;26.77;;;10.27;;
62633;SDS011;48704;50.534;6.442;2023-02-21T06:17:47;26.65;;;9.70;;
62633;SDS011;48704;50.534;6.442;2023-02-21T06:20:13;30.98;;;11.52;;
62633;SDS011;48704;50.534;6.442;2023-02-21T06:22:42;23.13;;;9.38;;
62633;SDS011;48704;50.534;6.442;2023-02-21T06:25:07;24.83;;;11.02;;
62633;SDS011;48704;50.534;6.442;2023-02-21T06:27:33;29.65;;;10.70;;
62633;SDS011;48704;50.534;6.442;2023-02-21T06:29:59;31.58;;;11.20;;
62633;SDS011;48704;50.534;6.442;2023-02-21T06:32:24;25.45;;;10.48;;
62633;SDS011;48704;50.534;6.442;2023-02-21T06:34:49;23.63;;;9.93;;
62633;SDS011;48704;50.534;6.442;2023-02-21T06:37:16;22.25;;;10.07;;
62633;SDS011;48704;50.534;6.442;2023-02-21T06:39:42;22.55;;;9.00;;
62633;SDS011;48704;50.534;6.442;2023-02-21T06:42:10;25.52;;;10.88;;
62633;SDS011;48704;50.534;6.442;2023-02-21T06:44:37;20.42;;;9.23;;
62633;SDS011;48704;50.534;6.442;2023-02-21T06:47:02;22.23;;;8.73;;
62633;SDS011;48704;50.534;6.442;2023-02-21T06:49:28;23.73;;;9.07;;
62633;SDS011;48704;50.534;6.442;2023-02-21T06:51:53;24.05;;;9.50;;
62633;SDS011;48704;50.534;6.442;2023-02-21T06:54:18;19.25;;;8.85;;
62633;SDS011;48704;50.534;6.442;2023-02-21T06:56:44;20.25;;;8.20;;
62633;SDS011;48704;50.534;6.442;2023-02-21T06:59:09;21.75;;;8.90;;
62633;SDS011;48704;50.534;6.442;2023-02-21T07:01:34;21.10;;;9.32;;
62633;SDS011;48704;50.534;6.442;2023-02-21T07:04:00;20.80;;;9.27;;
62633;SDS011;48704;50.534;6.442;2023-02-21T07:06:25;19.52;;;8.98;;
62633;SDS011;48704;50.534;6.442;2023-02-21T07:08:51;16.52;;;7.55;;
62633;SDS011;48704;50.534;6.442;2023-02-21T07:11:17;17.88;;;8.63;;
62633;SDS011;48704;50.534;6.442;2023-02-21T07:13:47;18.40;;;8.90;;
62633;SDS011;48704;50.534;6.442;2023-02-21T07:16:14;17.40;;;8.63;;
62633;SDS011;48704;50.534;6.442;2023-02-21T07:18:41;20.20;;;8.75;;
62633;SDS011;48704;50.534;6.442;2023-02-21T07:21:07;19.77;;;9.13;;
62633;SDS011;48704;50.534;6.442;2023-02-21T07:23:32;20.13;;;8.13;;
62633;SDS011;48704;50.534;6.442;2023-02-21T07:25:58;22.48;;;9.00;;
62633;SDS011;48704;50.534;6.442;2023-02-21T07:28:23;17.45;;;8.15;;
62633;SDS011;48704;50.534;6.442;2023-02-21T07:30:48;18.85;;;8.00;;
62633;SDS011;48704;50.534;6.442;2023-02-21T07:33:13;22.48;;;10.88;;
62633;SDS011;48704;50.534;6.442;2023-02-21T07:35:39;23.20;;;10.32;;
62633;SDS011;48704;50.534;6.442;2023-02-21T07:38:04;28.55;;;15.10;;
62633;SDS011;48704;50.534;6.442;2023-02-21T07:40:29;29.23;;;15.18;;
62633;SDS011;48704;50.534;6.442;2023-02-21T07:42:54;17.65;;;9.05;;
62633;SDS011;48704;50.534;6.442;2023-02-21T07:45:20;18.08;;;10.00;;
62633;SDS011;48704;50.534;6.442;2023-02-21T07:47:45;16.73;;;9.95;;
62633;SDS011;48704;50.534;6.442;2023-02-21T07:50:10;15.45;;;7.15;;
62633;SDS011;48704;50.534;6.442;2023-02-21T07:52:36;18.25;;;8.30;;
62633;SDS011;48704;50.534;6.442;2023-02-21T07:55:02;16.20;;;6.90;;
62633;SDS011;48704;50.534;6.442;2023-02-21T07:57:27;17.83;;;7.72;;
62633;SDS011;48704;50.534;6.442;2023-02-21T07:59:52;17.70;;;7.75;;
62633;SDS011;48704;50.534;6.442;2023-02-21T08:02:18;19.35;;;7.53;;
62633;SDS011;48704;50.534;6.442;2023-02-21T08:04:43;14.75;;;7.68;;
62633;SDS011;48704;50.534;6.442;2023-02-21T08:07:09;16.48;;;7.05;;
62633;SDS011;48704;50.534;6.442;2023-02-21T08:09:34;17.77;;;7.50;;
62633;SDS011;48704;50.534;6.442;2023-02-21T08:12:00;12.85;;;6.95;;
62633;SDS011;48704;50.534;6.442;2023-02-21T08:14:25;19.30;;;7.53;;
62633;SDS011;48704;50.534;6.442;2023-02-21T08:16:51;17.45;;;8.20;;
62633;SDS011;48704;50.534;6.442;2023-02-21T08:19:16;14.80;;;6.78;;
62633;SDS011;48704;50.534;6.442;2023-02-21T08:21:48;14.52;;;7.03;;
62633;SDS011;48704;50.534;6.442;2023-02-21T08:24:14;16.05;;;7.90;;
62633;SDS011;48704;50.534;6.442;2023-02-21T08:26:40;14.55;;;6.57;;
62633;SDS011;48704;50.534;6.442;2023-02-21T08:29:06;20.60;;;9.00;;
62633;SDS011;48704;50.534;6.442;2023-02-21T08:31:35;17.50;;;9.23;;
62633;SDS011;48704;50.534;6.442;2023-02-21T08:34:04;15.63;;;7.28;;
62633;SDS011;48704;50.534;6.442;2023-02-21T08:36:31;19.85;;;8.25;;
62633;SDS011;48704;50.534;6.442;2023-02-21T08:38:58;16.65;;;7.60;;
62633;SDS011;48704;50.534;6.442;2023-02-21T08:41:23;17.23;;;7.20;;
62633;SDS011;48704;50.534;6.442;2023-02-21T08:43:49;16.08;;;7.72;;
62633;SDS011;48704;50.534;6.442;2023-02-21T08:46:15;18.95;;;8.00;;
62633;SDS011;48704;50.534;6.442;2023-02-21T08:48:40;16.30;;;8.30;;
62633;SDS011;48704;50.534;6.442;2023-02-21T08:51:05;16.23;;;7.68;;
62633;SDS011;48704;50.534;6.442;2023-02-21T08:53:31;16.52;;;7.82;;
62633;SDS011;48704;50.534;6.442;2023-02-21T08:55:56;14.95;;;7.47;;
62633;SDS011;48704;50.534;6.442;2023-02-21T08:58:21;12.57;;;6.90;;
62633;SDS011;48704;50.534;6.442;2023-02-21T09:00:46;15.27;;;6.85;;
62633;SDS011;48704;50.534;6.442;2023-02-21T09:03:12;12.50;;;6.00;;
62633;SDS011;48704;50.534;6.442;2023-02-21T09:05:37;13.95;;;6.63;;
62633;SDS011;48704;50.534;6.442;2023-02-21T09:08:03;14.55;;;7.18;;
62633;SDS011;48704;50.534;6.442;2023-02-21T09:10:30;15.88;;;7.43;;
62633;SDS011;48704;50.534;6.442;2023-02-21T09:13:00;18.38;;;8.40;;
62633;SDS011;48704;50.534;6.442;2023-02-21T09:15:26;18.77;;;8.75;;
62633;SDS011;48704;50.534;6.442;2023-02-21T09:17:51;14.90;;;7.22;;
62633;SDS011;48704;50.534;6.442;2023-02-21T09:20:19;15.20;;;7.20;;
62633;SDS011;48704;50.534;6.442;2023-02-21T09:22:47;13.40;;;6.95;;
62633;SDS011;48704;50.534;6.442;2023-02-21T09:25:14;15.90;;;7.18;;
62633;SDS011;48704;50.534;6.442;2023-02-21T09:27:41;13.75;;;7.05;;
62633;SDS011;48704;50.534;6.442;2023-02-21T09:30:11;14.40;;;6.75;;
62633;SDS011;48704;50.534;6.442;2023-02-21T09:32:41;13.68;;;6.78;;
62633;SDS011;48704;50.534;6.442;2023-02-21T09:35:07;16.70;;;7.97;;
62633;SDS011;48704;50.534;6.442;2023-02-21T09:37:37;17.40;;;7.70;;
62633;SDS011;48704;50.534;6.442;2023-02-21T09:40:03;13.13;;;6.28;;
62633;SDS011;48704;50.534;6.442;2023-02-21T09:42:34;13.82;;;6.93;;
62633;SDS011;48704;50.534;6.442;2023-02-21T09:45:00;10.45;;;5.25;;
62633;SDS011;48704;50.534;6.442;2023-02-21T09:47:32;10.75;;;4.82;;
62633;SDS011;48704;50.534;6.442;2023-02-21T09:50:03;9.00;;;4.65;;
62633;SDS011;48704;50.534;6.442;2023-02-21T09:52:35;8.10;;;4.45;;
62633;SDS011;48704;50.534;6.442;2023-02-21T09:55:27;10.48;;;5.60;;
62633;SDS011;48704;50.534;6.442;2023-02-21T09:57:59;9.13;;;5.15;;
62633;SDS011;48704;50.534;6.442;2023-02-21T10:00:27;10.35;;;5.40;;
62633;SDS011;48704;50.534;6.442;2023-02-21T10:08:48;9.13;;;4.95;;
62633;SDS011;48704;50.534;6.442;2023-02-21T10:11:24;8.35;;;4.50;;
62633;SDS011;48704;50.534;6.442;2023-02-21T10:14:01;9.05;;;4.53;;
62633;SDS011;48704;50.534;6.442;2023-02-21T10:16:46;9.27;;;5.10;;
62633;SDS011;48704;50.534;6.442;2023-02-21T10:19:22;8.48;;;4.50;;
62633;SDS011;48704;50.534;6.442;2023-02-21T10:21:55;9.35;;;4.88;;
62633;SDS011;48704;50.534;6.442;2023-02-21T10:24:24;9.32;;;5.00;;
62633;SDS011;48704;50.534;6.442;2023-02-21T10:26:58;9.95;;;4.57;;
62633;SDS011;48704;50.534;6.442;2023-02-21T10:32:09;9.52;;;5.07;;
62633;SDS011;48704;50.534;6.442;2023-02-21T10:34:34;8.77;;;4.45;;
62633;SDS011;48704;50.534;6.442;2023-02-21T10:37:15;10.82;;;4.90;;
62633;SDS011;48704;50.534;6.442;2023-02-21T10:39:47;8.43;;;4.72;;
62633;SDS011;48704;50.534;6.442;2023-02-21T10:42:23;8.63;;;4.35;;
62633;SDS011;48704;50.534;6.442;2023-02-21T10:44:54;7.35;;;4.35;;
62633;SDS011;48704;50.534;6.442;2023-02-21T10:50:12;6.97;;;4.13;;
62633;SDS011;48704;50.534;6.442;2023-02-21T10:52:45;9.45;;;6.68;;
62633;SDS011;48704;50.534;6.442;2023-02-21T10:55:17;7.70;;;4.18;;
62633;SDS011;48704;50.534;6.442;2023-02-21T10:57:49;5.55;;;3.28;;
62633;SDS011;48704;50.534;6.442;2023-02-21T11:00:26;6.85;;;4.35;;
62633;SDS011;48704;50.534;6.442;2023-02-21T11:03:01;6.95;;;3.42;;
62633;SDS011;48704;50.534;6.442;2023-02-21T11:05:30;7.45;;;4.05;;
62633;SDS011;48704;50.534;6.442;2023-02-21T11:07:57;6.32;;;3.13;;
62633;SDS011;48704;50.534;6.442;2023-02-21T11:10:38;2.13;;;0.77;;
62633;SDS011;48704;50.534;6.442;2023-02-21T11:15:42;2.72;;;0.70;;
62633;SDS011;48704;50.534;6.442;2023-02-21T11:18:21;1.67;;;0.70;;
62633;SDS011;48704;50.534;6.442;2023-02-21T11:20:49;1.17;;;0.60;;
62633;SDS011;48704;50.534;6.442;2023-02-21T11:23:21;1.75;;;0.68;;
62633;SDS011;48704;50.534;6.442;2023-02-21T11:25:50;1.10;;;0.52;;
62633;SDS011;48704;50.534;6.442;2023-02-21T11:28:22;1.30;;;0.63;;
62633;SDS011;48704;50.534;6.442;2023-02-21T11:33:25;1.33;;;0.70;;
62633;SDS011;48704;50.534;6.442;2023-02-21T11:35:52;1.80;;;0.80;;
62633;SDS011;48704;50.534;6.442;2023-02-21T11:38:34;2.10;;;0.63;;
62633;SDS011;48704;50.534;6.442;2023-02-21T11:41:14;1.98;;;0.80;;
62633;SDS011;48704;50.534;6.442;2023-02-21T11:43:46;2.78;;;1.00;;
62633;SDS011;48704;50.534;6.442;2023-02-21T11:54:14;1.90;;;0.93;;
62633;SDS011;48704;50.534;6.442;2023-02-21T11:59:45;5.00;;;1.20;;
62633;SDS011;48704;50.534;6.442;2023-02-21T12:08:28;1.50;;;0.70;;
62633;SDS011;48704;50.534;6.442;2023-02-21T12:11:06;4.35;;;0.80;;
62633;SDS011;48704;50.534;6.442;2023-02-21T12:24:38;2.58;;;1.10;;
62633;SDS011;48704;50.534;6.442;2023-02-21T12:27:08;1.38;;;0.63;;
62633;SDS011;48704;50.534;6.442;2023-02-21T12:37:55;2.08;;;1.05;;
62633;SDS011;48704;50.534;6.442;2023-02-21T12:48:50;4.15;;;1.20;;
62633;SDS011;48704;50.534;6.442;2023-02-21T12:51:24;1.92;;;1.00;;
62633;SDS011;48704;50.534;6.442;2023-02-21T12:57:04;1.95;;;0.95;;
62633;SDS011;48704;50.534;6.442;2023-02-21T13:02:35;1.77;;;0.90;;
62633;SDS011;48704;50.534;6.442;2023-02-21T13:05:24;3.90;;;1.27;;
62633;SDS011;48704;50.534;6.442;2023-02-21T13:08:02;6.35;;;1.50;;
62633;SDS011;48704;50.534;6.442;2023-02-21T13:10:42;2.75;;;1.10;;
62633;SDS011;48704;50.534;6.442;2023-02-21T13:13:17;3.42;;;1.13;;
62633;SDS011;48704;50.534;6.442;2023-02-21T13:15:46;3.63;;;1.52;;
62633;SDS011;48704;50.534;6.442;2023-02-21T13:20:43;2.80;;;1.27;;
62633;SDS011;48704;50.534;6.442;2023-02-21T13:29:22;2.80;;;1.40;;
62633;SDS011;48704;50.534;6.442;2023-02-21T13:32:00;2.53;;;1.25;;
62633;SDS011;48704;50.534;6.442;2023-02-21T13:34:51;3.95;;;1.48;;
62633;SDS011;48704;50.534;6.442;2023-02-21T13:37:23;3.58;;;1.58;;
62633;SDS011;48704;50.534;6.442;2023-02-21T13:39:57;4.32;;;1.90;;
62633;SDS011;48704;50.534;6.442;2023-02-21T13:42:31;3.22;;;1.40;;
62633;SDS011;48704;50.534;6.442;2023-02-21T13:48:29;3.13;;;1.65;;
62633;SDS011;48704;50.534;6.442;2023-02-21T13:55:32;4.40;;;1.80;;
62633;SDS011;48704;50.534;6.442;2023-02-21T14:02:53;2.92;;;1.30;;
62633;SDS011;48704;50.534;6.442;2023-02-21T14:05:20;2.65;;;1.58;;
62633;SDS011;48704;50.534;6.442;2023-02-21T14:07:46;3.55;;;1.55;;
62633;SDS011;48704;50.534;6.442;2023-02-21T14:10:22;2.83;;;1.30;;
62633;SDS011;48704;50.534;6.442;2023-02-21T14:13:00;2.63;;;1.30;;
62633;SDS011;48704;50.534;6.442;2023-02-21T14:21:04;2.90;;;1.05;;
62633;SDS011;48704;50.534;6.442;2023-02-21T14:23:40;4.22;;;1.20;;
62633;SDS011;48704;50.534;6.442;2023-02-21T14:48:14;2.13;;;1.00;;
62633;SDS011;48704;50.534;6.442;2023-02-21T15:08:19;1.95;;;1.00;;
62633;SDS011;48704;50.534;6.442;2023-02-21T15:10:50;1.80;;;0.80;;
62633;SDS011;48704;50.534;6.442;2023-02-21T15:13:30;2.03;;;0.80;;
62633;SDS011;48704;50.534;6.442;2023-02-21T15:18:36;1.88;;;0.75;;
62633;SDS011;48704;50.534;6.442;2023-02-21T15:23:40;1.52;;;0.70;;
62633;SDS011;48704;50.534;6.442;2023-02-21T15:26:17;1.15;;;0.60;;
62633;SDS011;48704;50.534;6.442;2023-02-21T15:29:03;1.95;;;1.00;;
62633;SDS011;48704;50.534;6.442;2023-02-21T15:31:33;2.05;;;0.70;;
62633;SDS011;48704;50.534;6.442;2023-02-21T15:34:00;4.00;;;1.10;;
62633;SDS011;48704;50.534;6.442;2023-02-21T15:36:26;19.15;;;9.05;;
62633;SDS011;48704;50.534;6.442;2023-02-21T15:39:02;9.70;;;7.03;;
62633;SDS011;48704;50.534;6.442;2023-02-21T15:44:12;26.08;;;15.30;;
62633;SDS011;48704;50.534;6.442;2023-02-21T15:46:49;58.10;;;45.78;;
62633;SDS011;48704;50.534;6.442;2023-02-21T15:50:00;28.45;;;22.10;;
62633;SDS011;48704;50.534;6.442;2023-02-21T15:52:42;21.92;;;14.85;;
62633;SDS011;48704;50.534;6.442;2023-02-21T16:00:43;11.80;;;5.40;;
62633;SDS011;48704;50.534;6.442;2023-02-21T16:17:06;11.77;;;5.07;;
62633;SDS011;48704;50.534;6.442;2023-02-21T16:19:44;14.57;;;6.20;;
62633;SDS011;48704;50.534;6.442;2023-02-21T16:22:21;18.33;;;11.10;;
62633;SDS011;48704;50.534;6.442;2023-02-21T16:24:47;16.23;;;9.98;;
62633;SDS011;48704;50.534;6.442;2023-02-21T16:27:15;17.50;;;8.77;;
62633;SDS011;48704;50.534;6.442;2023-02-21T16:29:41;16.55;;;8.27;;
62633;SDS011;48704;50.534;6.442;2023-02-21T16:32:17;17.80;;;9.30;;
62633;SDS011;48704;50.534;6.442;2023-02-21T16:34:44;19.08;;;9.70;;
62633;SDS011;48704;50.534;6.442;2023-02-21T16:37:10;19.35;;;9.05;;
62633;SDS011;48704;50.534;6.442;2023-02-21T16:39:38;19.73;;;9.32;;
62633;SDS011;48704;50.534;6.442;2023-02-21T16:42:04;22.90;;;9.57;;
62633;SDS011;48704;50.534;6.442;2023-02-21T16:44:30;21.52;;;10.15;;
62633;SDS011;48704;50.534;6.442;2023-02-21T16:46:55;22.63;;;10.00;;
62633;SDS011;48704;50.534;6.442;2023-02-21T16:49:21;21.20;;;10.38;;
62633;SDS011;48704;50.534;6.442;2023-02-21T16:51:46;61.35;;;24.80;;
62633;SDS011;48704;50.534;6.442;2023-02-21T16:54:12;98.97;;;40.65;;
62633;SDS011;48704;50.534;6.442;2023-02-21T16:56:38;139.13;;;52.42;;
62633;SDS011;48704;50.534;6.442;2023-02-21T16:59:09;128.10;;;48.05;;
62633;SDS011;48704;50.534;6.442;2023-02-21T17:01:37;79.70;;;30.58;;
62633;SDS011;48704;50.534;6.442;2023-02-21T17:04:04;71.15;;;29.85;;
62633;SDS011;48704;50.534;6.442;2023-02-21T17:06:31;51.50;;;22.73;;
62633;SDS011;48704;50.534;6.442;2023-02-21T17:08:58;31.15;;;15.05;;
62633;SDS011;48704;50.534;6.442;2023-02-21T17:11:24;25.73;;;11.95;;
62633;SDS011;48704;50.534;6.442;2023-02-21T17:13:50;24.50;;;10.73;;
62633;SDS011;48704;50.534;6.442;2023-02-21T17:16:16;26.05;;;11.45;;
62633;SDS011;48704;50.534;6.442;2023-02-21T17:18:42;23.63;;;10.85;;
62633;SDS011;48704;50.534;6.442;2023-02-21T17:21:08;25.70;;;11.50;;
62633;SDS011;48704;50.534;6.442;2023-02-21T17:23:33;28.63;;;15.20;;
62633;SDS011;48704;50.534;6.442;2023-02-21T17:25:59;24.67;;;11.93;;
62633;SDS011;48704;50.534;6.442;2023-02-21T17:28:24;26.30;;;11.48;;
62633;SDS011;48704;50.534;6.442;2023-02-21T17:30:49;24.60;;;11.55;;
62633;SDS011;48704;50.534;6.442;2023-02-21T17:33:15;30.60;;;12.43;;
62633;SDS011;48704;50.534;6.442;2023-02-21T17:35:40;29.90;;;11.45;;
62633;SDS011;48704;50.534;6.442;2023-02-21T17:38:06;26.00;;;12.05;;
62633;SDS011;48704;50.534;6.442;2023-02-21T17:40:31;27.80;;;11.57;;
62633;SDS011;48704;50.534;6.442;2023-02-21T17:42:56;26.35;;;11.35;;
62633;SDS011;48704;50.534;6.442;2023-02-21T17:45:22;28.08;;;12.75;;
62633;SDS011;48704;50.534;6.442;2023-02-21T17:47:48;30.15;;;13.45;;
62633;SDS011;48704;50.534;6.442;2023-02-21T17:50:14;25.20;;;11.18;;
62633;SDS011;48704;50.534;6.442;2023-02-21T17:52:40;23.52;;;11.07;;
62633;SDS011;48704;50.534;6.442;2023-02-21T17:55:06;27.15;;;12.10;;
62633;SDS011;48704;50.534;6.442;2023-02-21T17:57:36;30.17;;;12.68;;
62633;SDS011;48704;50.534;6.442;2023-02-21T18:00:04;29.27;;;12.30;;
62633;SDS011;48704;50.534;6.442;2023-02-21T18:02:33;29.50;;;13.30;;
62633;SDS011;48704;50.534;6.442;2023-02-21T18:04:59;31.08;;;13.60;;
62633;SDS011;48704;50.534;6.442;2023-02-21T18:07:24;29.50;;;12.60;;
62633;SDS011;48704;50.534;6.442;2023-02-21T18:09:52;31.38;;;13.52;;
62633;SDS011;48704;50.534;6.442;2023-02-21T18:12:17;30.25;;;14.38;;
62633;SDS011;48704;50.534;6.442;2023-02-21T18:14:43;29.02;;;13.65;;
62633;SDS011;48704;50.534;6.442;2023-02-21T18:17:08;31.02;;;14.10;;
62633;SDS011;48704;50.534;6.442;2023-02-21T18:19:34;34.30;;;14.00;;
62633;SDS011;48704;50.534;6.442;2023-02-21T18:21:59;31.27;;;13.80;;
62633;SDS011;48704;50.534;6.442;2023-02-21T18:24:29;33.03;;;14.13;;
62633;SDS011;48704;50.534;6.442;2023-02-21T18:26:54;31.55;;;13.75;;
62633;SDS011;48704;50.534;6.442;2023-02-21T18:29:20;32.75;;;14.50;;
62633;SDS011;48704;50.534;6.442;2023-02-21T18:31:49;32.20;;;13.95;;
62633;SDS011;48704;50.534;6.442;2023-02-21T18:34:15;36.25;;;17.38;;
62633;SDS011;48704;50.534;6.442;2023-02-21T18:36:46;37.10;;;17.50;;